Time;durP1;ratioP1;P1;durP2;ratioP2;P2;SDS_P1;SDS_P2;PMS_P1;PMS_P2;Temp;Humidity;BMP_temperature;BMP_pressure;BME280_temperature;BME280_humidity;BME280_pressure;Samples;Min_cycle;Max_cycle;Signal;HPM_P1;HPM_P2
2022/10/28 00:03:38;;;;;;;16.92;4.25;;;17.70;99.90;;;;;;7349647;32;20198;-60
2022/10/28 00:07:39;;;;;;;9.77;3.83;;;17.70;99.90;;;;;;7351655;32;20182;-60
2022/10/28 00:11:41;;;;;;;10.52;3.95;;;17.70;99.90;;;;;;7350483;32;20092;-60
2022/10/28 00:15:43;;;;;;;10.68;4.00;;;17.70;99.90;;;;;;7351424;32;20222;-60
2022/10/28 00:19:44;;;;;;;10.00;3.08;;;17.80;99.90;;;;;;7351801;32;20533;-60
2022/10/28 00:23:46;;;;;;;11.85;3.87;;;17.70;99.90;;;;;;7350565;32;20249;-60
2022/10/28 00:27:48;;;;;;;12.05;3.90;;;17.70;99.90;;;;;;7350137;32;20247;-60
2022/10/28 00:31:51;;;;;;;15.23;4.18;;;17.80;99.90;;;;;;7349360;32;20197;-59
2022/10/28 00:35:53;;;;;;;12.02;3.83;;;17.80;99.90;;;;;;7347024;32;20216;-59
2022/10/28 00:39:54;;;;;;;9.65;3.37;;;17.70;99.90;;;;;;7349167;32;20190;-60
2022/10/28 00:43:59;;;;;;;13.32;4.03;;;17.70;99.90;;;;;;7350030;32;20099;-60
2022/10/28 00:48:03;;;;;;;10.88;3.03;;;17.70;99.90;;;;;;7351724;32;20107;-59
2022/10/28 00:52:11;;;;;;;24.30;4.05;;;17.80;99.90;;;;;;7351737;32;20103;-60
2022/10/28 00:56:14;;;;;;;12.52;3.40;;;17.90;99.90;;;;;;7345525;32;20186;-62
2022/10/28 01:00:16;;;;;;;10.18;3.55;;;17.90;99.90;;;;;;7350533;32;20182;-59
2022/10/28 01:04:19;;;;;;;8.48;3.53;;;17.90;99.90;;;;;;7353438;32;20192;-60
2022/10/28 01:08:21;;;;;;;13.32;4.10;;;17.90;99.90;;;;;;7349071;32;20643;-59
2022/10/28 01:12:51;;;;;;;16.73;3.87;;;17.90;99.90;;;;;;7347376;32;20198;-61
2022/10/28 01:16:53;;;;;;;10.32;3.70;;;17.90;99.90;;;;;;7348044;32;20209;-60
2022/10/28 01:21:26;;;;;;;10.02;3.15;;;17.90;99.90;;;;;;7350457;32;20103;-59
2022/10/28 01:26:05;;;;;;;9.88;3.70;;;18.00;99.90;;;;;;7348720;32;20129;-60
2022/10/28 01:30:22;;;;;;;11.40;3.70;;;18.00;99.90;;;;;;7349657;32;20350;-59
2022/10/28 01:34:30;;;;;;;9.23;3.13;;;18.10;99.90;;;;;;7352176;32;20191;-60
2022/10/28 01:38:51;;;;;;;12.60;4.03;;;18.00;99.90;;;;;;7350045;32;20128;-59
2022/10/28 01:43:16;;;;;;;17.15;3.53;;;17.90;99.90;;;;;;7345403;32;20562;-61
2022/10/28 01:47:46;;;;;;;13.68;3.40;;;17.90;99.90;;;;;;7349056;32;20122;-58
2022/10/28 01:51:53;;;;;;;14.18;3.55;;;18.00;99.90;;;;;;7343992;32;20107;-59
2022/10/28 01:55:58;;;;;;;12.57;3.42;;;18.10;99.90;;;;;;7341448;32;20552;-58
2022/10/28 02:00:01;;;;;;;8.52;3.28;;;18.00;99.90;;;;;;7344302;32;20095;-59
2022/10/28 02:04:03;;;;;;;10.88;3.58;;;18.00;99.90;;;;;;7347696;32;20198;-59
2022/10/28 02:08:16;;;;;;;11.60;3.10;;;17.90;99.90;;;;;;7347912;32;20121;-60
2022/10/28 02:12:28;;;;;;;10.38;3.47;;;18.00;99.90;;;;;;7346572;32;20135;-58
2022/10/28 02:16:50;;;;;;;10.20;3.17;;;17.80;99.90;;;;;;7347442;32;20118;-59
2022/10/28 02:20:58;;;;;;;10.57;3.15;;;17.80;99.90;;;;;;7342319;32;20134;-59
2022/10/28 02:25:07;;;;;;;10.50;3.20;;;17.60;99.90;;;;;;7348828;32;20099;-60
2022/10/28 02:29:46;;;;;;;9.68;3.50;;;17.70;99.90;;;;;;7350607;32;20589;-59
2022/10/28 02:33:53;;;;;;;8.45;2.90;;;17.60;99.90;;;;;;7345414;32;20534;-59
2022/10/28 02:37:59;;;;;;;9.27;3.12;;;17.50;99.90;;;;;;7341560;32;20126;-59
2022/10/28 02:42:07;;;;;;;13.73;3.65;;;17.40;99.90;;;;;;7346262;32;20096;-58
2022/10/28 02:46:12;;;;;;;9.73;3.33;;;17.40;99.90;;;;;;7347559;32;20114;-58
2022/10/28 02:50:19;;;;;;;9.27;3.42;;;17.40;99.90;;;;;;7344712;32;20233;-58
2022/10/28 02:54:25;;;;;;;10.35;3.10;;;17.30;99.90;;;;;;7348372;32;20826;-59
2022/10/28 02:58:28;;;;;;;11.88;3.37;;;17.40;99.90;;;;;;7348031;32;20542;-58
2022/10/28 03:02:30;;;;;;;12.43;3.40;;;17.50;99.90;;;;;;7347289;32;20107;-59
2022/10/28 03:06:31;;;;;;;9.13;3.17;;;17.40;99.90;;;;;;7351586;32;20091;-58
2022/10/28 03:10:34;;;;;;;10.45;3.80;;;17.30;99.90;;;;;;7347373;32;20249;-59
2022/10/28 03:14:36;;;;;;;12.85;3.40;;;17.20;99.90;;;;;;7344540;32;20190;-59
2022/10/28 03:18:37;;;;;;;13.98;3.87;;;17.30;99.90;;;;;;7350951;32;20107;-60
2022/10/28 03:22:43;;;;;;;12.20;3.25;;;17.20;99.90;;;;;;7343798;32;20535;-58
2022/10/28 03:26:44;;;;;;;10.45;3.37;;;17.20;99.90;;;;;;7345196;32;20121;-59
2022/10/28 03:30:46;;;;;;;7.82;3.22;;;17.10;99.90;;;;;;7351311;32;20103;-60
2022/10/28 03:34:48;;;;;;;15.63;4.07;;;17.10;99.90;;;;;;7349647;32;20119;-58
2022/10/28 03:38:49;;;;;;;11.95;3.65;;;17.10;99.90;;;;;;7358969;32;20209;-58
2022/10/28 03:42:51;;;;;;;12.15;3.60;;;17.20;99.90;;;;;;7346292;32;20103;-58
2022/10/28 03:46:53;;;;;;;14.60;4.12;;;17.20;99.90;;;;;;7342434;32;20186;-58
2022/10/28 03:50:55;;;;;;;12.02;3.90;;;17.20;99.90;;;;;;7347194;32;20104;-59
2022/10/28 03:54:57;;;;;;;17.08;4.30;;;17.10;99.90;;;;;;7351924;32;20107;-58
2022/10/28 03:58:58;;;;;;;13.02;3.42;;;17.20;99.90;;;;;;7351029;32;20122;-58
2022/10/28 04:03:00;;;;;;;13.82;3.58;;;17.20;99.90;;;;;;7353772;32;20111;-58
2022/10/28 04:07:02;;;;;;;10.75;3.53;;;17.20;99.90;;;;;;7354872;32;20112;-58
2022/10/28 04:11:03;;;;;;;12.65;3.50;;;17.20;99.90;;;;;;7350249;32;20195;-60
2022/10/28 04:15:06;;;;;;;12.07;3.40;;;17.00;99.90;;;;;;7348265;32;20633;-60
2022/10/28 04:19:07;;;;;;;12.93;3.53;;;17.10;99.90;;;;;;7349785;32;20167;-58
2022/10/28 04:23:14;;;;;;;17.30;4.05;;;17.00;99.90;;;;;;7348764;32;20131;-58
2022/10/28 04:27:16;;;;;;;10.20;3.20;;;17.00;99.90;;;;;;7347785;32;20471;-59
2022/10/28 04:31:18;;;;;;;10.88;3.90;;;17.00;99.90;;;;;;7343132;32;20096;-59
2022/10/28 04:35:20;;;;;;;11.57;3.80;;;17.00;99.90;;;;;;7348235;32;20121;-59
2022/10/28 04:39:21;;;;;;;9.82;3.50;;;17.00;99.90;;;;;;7346662;32;20463;-61
2022/10/28 04:43:23;;;;;;;8.77;3.85;;;17.10;99.90;;;;;;7350131;32;20162;-58
2022/10/28 04:47:25;;;;;;;10.70;3.87;;;17.10;99.90;;;;;;7350366;32;20129;-58
2022/10/28 04:51:26;;;;;;;12.75;3.53;;;17.10;99.90;;;;;;7346516;32;20123;-58
2022/10/28 04:55:28;;;;;;;13.55;3.67;;;17.10;99.90;;;;;;7345268;32;20134;-58
2022/10/28 04:59:30;;;;;;;13.75;3.80;;;17.20;99.90;;;;;;7346632;32;21127;-58
2022/10/28 05:03:32;;;;;;;13.02;3.90;;;17.10;99.90;;;;;;7340224;32;20762;-58
2022/10/28 05:07:33;;;;;;;12.73;4.65;;;17.10;99.90;;;;;;7341625;32;20198;-58
2022/10/28 05:11:35;;;;;;;11.32;3.87;;;17.10;99.90;;;;;;7347093;32;20130;-59
2022/10/28 05:15:37;;;;;;;10.93;3.40;;;17.10;99.90;;;;;;7348954;32;20190;-59
2022/10/28 05:19:38;;;;;;;10.35;3.37;;;17.10;99.90;;;;;;7348116;32;20107;-59
2022/10/28 05:23:40;;;;;;;9.23;3.50;;;17.00;99.90;;;;;;7350486;32;20108;-59
2022/10/28 05:27:42;;;;;;;17.50;7.97;;;17.00;99.90;;;;;;7357096;32;20099;-59
2022/10/28 05:31:45;;;;;;;14.32;4.18;;;17.00;99.90;;;;;;7346481;32;20186;-59
2022/10/28 05:35:46;;;;;;;14.75;3.75;;;17.10;99.90;;;;;;7354380;32;20103;-59
2022/10/28 05:39:48;;;;;;;12.40;3.85;;;17.10;99.90;;;;;;7344334;32;20100;-60
2022/10/28 05:43:50;;;;;;;13.93;4.47;;;17.10;99.90;;;;;;7348181;32;20125;-58
2022/10/28 05:47:52;;;;;;;13.88;4.72;;;17.00;99.90;;;;;;7344350;32;20249;-60
2022/10/28 05:51:54;;;;;;;16.60;4.10;;;17.10;99.90;;;;;;7347705;32;20520;-62
2022/10/28 05:55:56;;;;;;;13.30;4.25;;;17.10;99.90;;;;;;7350828;32;20126;-61
2022/10/28 05:59:58;;;;;;;16.83;3.90;;;17.00;99.90;;;;;;7348860;32;20096;-60
2022/10/28 06:03:59;;;;;;;16.60;3.97;;;17.20;99.90;;;;;;7345126;32;20140;-60
2022/10/28 06:08:04;;;;;;;10.43;3.90;;;17.20;99.90;;;;;;7352088;32;20512;-60
2022/10/28 06:12:07;;;;;;;11.55;3.85;;;17.10;99.90;;;;;;7347460;32;20838;-60
2022/10/28 06:16:08;;;;;;;8.13;3.40;;;17.10;99.90;;;;;;7344058;32;20162;-61
2022/10/28 06:20:10;;;;;;;13.70;3.35;;;17.00;99.90;;;;;;7342082;32;20222;-63
2022/10/28 06:24:12;;;;;;;11.73;3.35;;;17.10;99.90;;;;;;7344382;32;20121;-61
2022/10/28 06:28:14;;;;;;;11.10;3.62;;;17.00;99.90;;;;;;7336879;32;20217;-62
2022/10/28 06:32:16;;;;;;;8.45;3.92;;;17.00;99.90;;;;;;7342698;32;20538;-61
2022/10/28 06:36:17;;;;;;;10.07;3.60;;;17.00;99.90;;;;;;7346155;32;20137;-61
2022/10/28 06:40:19;;;;;;;11.07;3.65;;;17.00;99.90;;;;;;7347662;32;20111;-61
2022/10/28 06:44:21;;;;;;;11.75;3.55;;;17.00;99.90;;;;;;7347841;32;20363;-64
2022/10/28 06:48:23;;;;;;;13.90;3.70;;;17.10;99.90;;;;;;7340445;32;20598;-61
2022/10/28 06:52:25;;;;;;;12.05;3.50;;;17.10;99.90;;;;;;7348308;32;20115;-61
2022/10/28 06:56:26;;;;;;;12.20;3.60;;;17.10;99.90;;;;;;7338572;32;20121;-62
2022/10/28 07:00:30;;;;;;;11.12;4.15;;;17.10;99.90;;;;;;7342485;32;20104;-61
2022/10/28 07:04:37;;;;;;;15.48;3.67;;;17.20;99.90;;;;;;7352488;32;20198;-62
2022/10/28 07:08:38;;;;;;;10.43;3.50;;;17.20;99.90;;;;;;7348357;32;20132;-61
2022/10/28 07:12:40;;;;;;;12.77;3.60;;;17.30;99.90;;;;;;7345018;32;20121;-61
2022/10/28 07:16:41;;;;;;;11.20;3.72;;;17.20;99.90;;;;;;7347230;32;20190;-61
2022/10/28 07:20:43;;;;;;;10.45;3.53;;;17.30;99.90;;;;;;7345078;32;20122;-63
2022/10/28 07:24:45;;;;;;;17.35;4.28;;;17.20;99.90;;;;;;7341936;32;20137;-62
2022/10/28 07:28:46;;;;;;;15.45;4.05;;;17.30;99.90;;;;;;7340526;32;20125;-61
2022/10/28 07:32:48;;;;;;;13.32;3.90;;;17.30;99.90;;;;;;7343244;32;20511;-63
2022/10/28 07:36:51;;;;;;;15.13;3.87;;;17.40;99.90;;;;;;7349369;32;20109;-61
2022/10/28 07:40:53;;;;;;;11.52;3.90;;;17.50;99.90;;;;;;7349591;32;20123;-62
2022/10/28 07:44:54;;;;;;;13.52;3.65;;;17.50;99.90;;;;;;7348381;32;20299;-63
2022/10/28 07:48:56;;;;;;;12.25;3.55;;;17.60;99.90;;;;;;7347641;32;20576;-61
2022/10/28 07:52:58;;;;;;;11.38;4.07;;;17.70;99.90;;;;;;7355322;32;20108;-61
2022/10/28 07:57:00;;;;;;;14.20;4.37;;;17.70;99.90;;;;;;7343233;32;20534;-61
2022/10/28 08:01:04;;;;;;;17.05;3.83;;;17.90;99.90;;;;;;7342266;32;20099;-61
2022/10/28 08:05:06;;;;;;;14.35;3.83;;;17.90;99.90;;;;;;7351804;32;20119;-61
2022/10/28 08:09:08;;;;;;;16.92;3.90;;;18.10;99.90;;;;;;7357294;32;20225;-63
2022/10/28 08:13:10;;;;;;;14.25;3.72;;;18.00;99.90;;;;;;7353278;32;20118;-61
2022/10/28 08:17:11;;;;;;;13.38;4.40;;;18.20;99.90;;;;;;7348692;32;20708;-62
2022/10/28 08:21:14;;;;;;;18.90;3.92;;;18.30;99.90;;;;;;7353431;32;20100;-61
2022/10/28 08:25:15;;;;;;;11.85;4.07;;;18.30;99.90;;;;;;7354122;32;20103;-61
2022/10/28 08:29:17;;;;;;;12.55;3.75;;;18.30;99.90;;;;;;7352335;32;20606;-63
2022/10/28 08:33:19;;;;;;;13.20;3.72;;;18.40;99.90;;;;;;7346476;32;20178;-61
2022/10/28 08:37:20;;;;;;;13.55;3.97;;;18.50;99.90;;;;;;7355282;32;20111;-62
2022/10/28 08:41:51;;;;;;;16.90;4.07;;;18.40;99.90;;;;;;7343540;32;20505;-62
2022/10/28 08:46:09;;;;;;;13.57;3.58;;;18.40;99.90;;;;;;7349410;32;20582;-62
2022/10/28 08:50:19;;;;;;;11.35;4.10;;;18.40;99.90;;;;;;7354707;32;20107;-62
2022/10/28 08:55:00;;;;;;;16.75;4.70;;;18.40;99.90;;;;;;7352931;32;20244;-62
2022/10/28 08:59:05;;;;;;;13.77;3.40;;;18.50;99.90;;;;;;7346812;32;20464;-62
2022/10/28 09:03:21;;;;;;;15.75;3.87;;;18.50;99.90;;;;;;7347820;32;20129;-62
2022/10/28 09:07:23;;;;;;;11.60;3.58;;;18.70;99.90;;;;;;7354879;32;20798;-62
2022/10/28 09:11:48;;;;;;;13.40;3.97;;;18.70;99.90;;;;;;7349280;32;20202;-62
2022/10/28 09:16:16;;;;;;;15.63;3.75;;;18.70;99.90;;;;;;7357463;32;20130;-62
2022/10/28 09:20:46;;;;;;;14.27;3.50;;;18.90;99.90;;;;;;7351896;32;20126;-61
2022/10/28 09:24:52;;;;;;;12.63;3.47;;;19.10;99.90;;;;;;7354324;32;20118;-62
2022/10/28 09:29:27;;;;;;;13.23;3.67;;;19.20;99.90;;;;;;7357367;32;20129;-64
2022/10/28 09:33:46;;;;;;;11.45;4.03;;;19.60;99.90;;;;;;7358347;32;20437;-62
2022/10/28 09:38:19;;;;;;;12.82;3.40;;;20.20;99.90;;;;;;7355725;32;20479;-62
2022/10/28 09:42:38;;;;;;;12.65;3.55;;;20.70;99.90;;;;;;7347731;32;20134;-62
2022/10/28 09:46:52;;;;;;;19.00;3.92;;;21.00;99.90;;;;;;7355308;32;20171;-62
2022/10/28 09:50:56;;;;;;;13.48;3.70;;;20.90;99.90;;;;;;7354814;32;20110;-62
2022/10/28 09:55:01;;;;;;;15.20;3.90;;;20.90;99.90;;;;;;7357396;32;20111;-64
2022/10/28 09:59:03;;;;;;;16.87;3.65;;;20.70;99.90;;;;;;7357112;32;20137;-62
2022/10/28 10:03:05;;;;;;;13.13;3.70;;;20.50;99.90;;;;;;7353706;32;20277;-62
2022/10/28 10:07:18;;;;;;;14.55;3.80;;;20.70;99.90;;;;;;7346594;32;20154;-62
2022/10/28 10:11:42;;;;;;;13.40;3.28;;;20.70;99.90;;;;;;7356946;32;20099;-62
2022/10/28 10:15:49;;;;;;;12.80;3.65;;;21.00;99.90;;;;;;7355472;32;20111;-63
2022/10/28 10:19:57;;;;;;;;;;;21.00;99.90;;;;;;7355979;32;20107;-62
2022/10/28 10:23:59;;;;;;;;;;;21.00;99.90;;;;;;7357856;32;20455;-63
2022/10/28 10:28:04;;;;;;;14.50;3.90;;;20.90;99.90;;;;;;7356611;32;20040;-62
2022/10/28 10:32:18;;;;;;;14.73;4.07;;;21.00;99.90;;;;;;7353781;32;20202;-62
2022/10/28 10:36:27;;;;;;;13.00;4.10;;;21.10;99.90;;;;;;7355110;32;20111;-61
2022/10/28 10:40:45;;;;;;;17.12;3.60;;;21.20;99.90;;;;;;7356328;32;20130;-62
2022/10/28 10:45:14;;;;;;;10.15;3.45;;;21.30;99.90;;;;;;7353977;32;20202;-62
2022/10/28 10:49:17;;;;;;;11.18;3.70;;;21.60;99.90;;;;;;7354575;32;20574;-63
2022/10/28 10:53:24;;;;;;;15.70;3.75;;;21.70;99.90;;;;;;7356833;32;20115;-62
2022/10/28 10:57:26;;;;;;;12.05;3.35;;;21.90;99.90;;;;;;7356094;32;20165;-62
2022/10/28 11:01:34;;;;;;;11.02;3.62;;;21.90;99.90;;;;;;7357869;32;20550;-62
2022/10/28 11:05:36;;;;;;;11.70;3.45;;;21.90;99.90;;;;;;7353174;32;20262;-62
2022/10/28 11:09:41;;;;;;;8.18;3.78;;;22.00;99.90;;;;;;7355588;32;20141;-61
2022/10/28 11:13:43;;;;;;;11.73;3.45;;;22.00;99.90;;;;;;7354524;32;20107;-62
2022/10/28 11:18:15;;;;;;;12.80;3.22;;;22.10;99.90;;;;;;7353792;32;20188;-61
2022/10/28 11:22:45;;;;;;;18.05;3.70;;;22.20;99.90;;;;;;7353284;32;20138;-61
2022/10/28 11:27:19;;;;;;;8.68;3.45;;;22.30;99.90;;;;;;7353711;32;20142;-61
2022/10/28 11:31:32;;;;;;;15.55;3.65;;;22.50;99.90;;;;;;7352238;32;20520;-61
2022/10/28 11:35:57;;;;;;;15.50;3.60;;;22.60;99.90;;;;;;7356267;32;20233;-61
2022/10/28 11:40:26;;;;;;;13.57;3.62;;;22.80;99.90;;;;;;7362472;32;20564;-61
2022/10/28 11:44:48;;;;;;;16.45;4.03;;;22.90;99.90;;;;;;7359102;32;20103;-61
2022/10/28 11:49:08;;;;;;;13.43;3.53;;;23.00;99.90;;;;;;7341687;32;20103;-62
2022/10/28 11:53:30;;;;;;;15.10;3.90;;;22.90;99.90;;;;;;7353203;32;20130;-62
2022/10/28 11:58:03;;;;;;;16.87;3.78;;;22.80;99.90;;;;;;7355331;32;20137;-63
2022/10/28 12:02:23;;;;;;;13.40;3.75;;;22.90;99.90;;;;;;7352366;32;20103;-63
2022/10/28 12:07:02;;;;;;;14.43;3.45;;;22.90;99.90;;;;;;7349248;32;20210;-64
2022/10/28 12:11:27;;;;;;;15.00;3.85;;;22.70;99.90;;;;;;7356071;32;20171;-61
2022/10/28 12:16:06;;;;;;;16.73;3.60;;;23.00;99.90;;;;;;7354803;32;20126;-62
2022/10/28 12:20:23;;;;;;;13.10;3.45;;;23.00;99.90;;;;;;7354991;32;20122;-62
2022/10/28 12:24:25;;;;;;;;;;;23.00;99.90;;;;;;7354933;32;20129;-62
2022/10/28 12:28:39;;;;;;;14.60;3.80;;;23.10;99.90;;;;;;7346589;32;20498;-63
2022/10/28 12:32:43;;;;;;;14.02;3.70;;;23.10;99.90;;;;;;7349316;32;20112;-63
2022/10/28 12:37:00;;;;;;;9.88;3.35;;;23.10;99.90;;;;;;7343878;32;20138;-63
2022/10/28 12:41:20;;;;;;;18.95;3.60;;;23.10;99.90;;;;;;7340634;32;20130;-63
2022/10/28 12:45:23;;;;;;;14.95;3.90;;;23.20;99.90;;;;;;7353923;32;20225;-62
2022/10/28 12:49:37;;;;;;;15.40;4.00;;;23.20;99.90;;;;;;7355236;32;20138;-62
2022/10/28 12:54:15;;;;;;;12.93;3.58;;;23.20;99.90;;;;;;7353380;32;20175;-61
2022/10/28 12:58:41;;;;;;;16.77;4.00;;;23.10;99.90;;;;;;7314837;32;20573;-63
2022/10/28 13:03:01;;;;;;;15.27;4.07;;;23.20;99.90;;;;;;7348360;32;20130;-62
2022/10/28 13:07:23;;;;;;;14.18;3.50;;;23.20;99.90;;;;;;7352076;32;20107;-62
2022/10/28 13:11:45;;;;;;;15.10;3.62;;;23.10;99.90;;;;;;7350718;32;20239;-63
2022/10/28 13:16:07;;;;;;;16.30;3.72;;;23.30;99.90;;;;;;7343823;32;20107;-62
2022/10/28 13:20:21;;;;;;;9.80;3.53;;;23.30;99.90;;;;;;7350585;32;20130;-63
2022/10/28 13:24:46;;;;;;;12.60;3.30;;;23.40;99.90;;;;;;7343761;32;20479;-62
2022/10/28 13:28:51;;;;;;;14.57;3.85;;;23.60;99.90;;;;;;7346589;32;20126;-63
2022/10/28 13:33:08;;;;;;;17.62;3.83;;;23.50;99.90;;;;;;7344437;32;20130;-63
2022/10/28 13:37:19;;;;;;;11.65;3.90;;;23.50;99.90;;;;;;7349049;32;20119;-63
2022/10/28 13:41:39;;;;;;;13.18;3.55;;;23.60;99.90;;;;;;7341703;32;20126;-62
2022/10/28 13:45:54;;;;;;;16.17;4.00;;;23.60;99.90;;;;;;7346957;32;20107;-65
2022/10/28 13:50:31;;;;;;;15.90;3.78;;;23.80;99.90;;;;;;7354379;32;20277;-63
2022/10/28 13:54:57;;;;;;;16.12;4.12;;;24.00;99.90;;;;;;7351783;32;20561;-63
2022/10/28 13:59:13;;;;;;;15.15;3.10;;;24.10;99.90;;;;;;7345711;32;20258;-62
2022/10/28 14:03:24;;;;;;;13.13;3.37;;;24.00;99.90;;;;;;7349101;32;20130;-65
2022/10/28 14:07:32;;;;;;;15.43;3.62;;;23.80;99.90;;;;;;7351893;32;20186;-63
2022/10/28 14:11:34;;;;;;;15.43;3.85;;;23.50;99.90;;;;;;7341260;32;20209;-63
2022/10/28 14:15:37;;;;;;;15.65;3.47;;;23.40;99.90;;;;;;7347269;32;20246;-60
2022/10/28 14:19:46;;;;;;;21.35;4.68;;;23.30;99.90;;;;;;7349037;32;20448;-59
2022/10/28 14:23:49;;;;;;;15.77;3.87;;;23.20;99.90;;;;;;7347023;32;20484;-63
2022/10/28 14:27:50;;;;;;;15.65;3.90;;;23.10;99.90;;;;;;7353711;32;20208;-63
2022/10/28 14:31:53;;;;;;;12.75;3.97;;;23.00;99.90;;;;;;7350310;32;20156;-63
2022/10/28 14:36:06;;;;;;;12.18;4.10;;;22.80;99.90;;;;;;7350897;32;20236;-63
2022/10/28 14:40:30;;;;;;;17.02;3.75;;;22.80;99.90;;;;;;7351341;32;20223;-63
2022/10/28 14:44:49;;;;;;;15.30;3.40;;;22.60;99.90;;;;;;7354690;32;20092;-63
2022/10/28 14:48:54;;;;;;;16.55;4.32;;;22.50;99.90;;;;;;7351462;32;20175;-64
2022/10/28 14:52:57;;;;;;;14.52;3.22;;;22.50;99.90;;;;;;7350819;32;20191;-65
2022/10/28 14:56:59;;;;;;;19.50;3.60;;;22.50;99.90;;;;;;7351008;32;20118;-63
2022/10/28 15:01:35;;;;;;;16.75;3.60;;;22.30;99.90;;;;;;7350165;32;20734;-63
2022/10/28 15:05:37;;;;;;;22.65;3.67;;;22.30;99.90;;;;;;7347933;32;20686;-63
2022/10/28 15:09:39;;;;;;;18.75;3.80;;;22.30;99.90;;;;;;7355126;32;20115;-60
2022/10/28 15:13:40;;;;;;;17.27;4.10;;;22.10;99.90;;;;;;7351534;32;20104;-61
2022/10/28 15:17:42;;;;;;;19.00;4.25;;;21.90;99.90;;;;;;7345821;32;20087;-63
2022/10/28 15:22:01;;;;;;;15.38;3.95;;;21.80;99.90;;;;;;7348475;32;20213;-62
2022/10/28 15:26:11;;;;;;;16.98;3.10;;;21.80;99.90;;;;;;7343884;32;20104;-60
2022/10/28 15:30:14;;;;;;;15.73;3.58;;;21.80;99.90;;;;;;7348380;32;20125;-60
2022/10/28 15:34:20;;;;;;;15.57;3.72;;;21.60;99.90;;;;;;7341301;32;20135;-60
2022/10/28 15:38:27;;;;;;;15.05;3.85;;;21.60;99.90;;;;;;7351536;32;20186;-61
2022/10/28 15:42:57;;;;;;;14.02;3.67;;;21.40;99.90;;;;;;7345277;32;20134;-60
2022/10/28 15:47:06;;;;;;;14.80;3.70;;;21.30;99.90;;;;;;7347900;32;20463;-62
2022/10/28 15:51:15;;;;;;;15.88;4.28;;;21.10;99.90;;;;;;7342009;32;20095;-62
2022/10/28 15:55:17;;;;;;;14.98;3.55;;;21.10;99.90;;;;;;7351086;32;20666;-60
2022/10/28 15:59:21;;;;;;;14.95;3.58;;;21.00;99.90;;;;;;7346837;32;20142;-60
2022/10/28 16:03:43;;;;;;;16.90;3.75;;;20.90;99.90;;;;;;7350665;32;20174;-61
2022/10/28 16:07:45;;;;;;;16.20;4.10;;;20.70;99.90;;;;;;7342469;32;20547;-64
2022/10/28 16:11:51;;;;;;;12.27;3.62;;;20.50;99.90;;;;;;7344418;32;20157;-63
2022/10/28 16:15:57;;;;;;;16.00;3.70;;;20.50;99.90;;;;;;7349419;32;20115;-64
2022/10/28 16:20:03;;;;;;;16.10;3.87;;;20.50;99.90;;;;;;7350922;32;20099;-63
2022/10/28 16:24:05;;;;;;;17.20;4.03;;;20.20;99.90;;;;;;7350819;32;20206;-61
2022/10/28 16:28:22;;;;;;;19.05;3.85;;;20.10;99.90;;;;;;7357313;32;20201;-63
2022/10/28 16:32:32;;;;;;;14.63;3.92;;;20.10;99.90;;;;;;7344446;32;20096;-63
2022/10/28 16:36:36;;;;;;;16.77;4.00;;;20.00;99.90;;;;;;7347801;32;20126;-62
2022/10/28 16:40:38;;;;;;;17.45;4.00;;;19.80;99.90;;;;;;7350859;32;20122;-62
2022/10/28 16:44:52;;;;;;;20.00;5.32;;;19.60;99.90;;;;;;7341246;32;20211;-63
2022/10/28 16:48:54;;;;;;;17.80;4.62;;;19.50;99.90;;;;;;7347957;32;20506;-64
2022/10/28 16:52:56;;;;;;;14.45;4.57;;;19.30;99.90;;;;;;7342909;32;20186;-66
2022/10/28 16:56:57;;;;;;;14.35;4.22;;;19.30;99.90;;;;;;7348894;32;20833;-65
2022/10/28 17:00:59;;;;;;;16.23;4.05;;;19.10;99.90;;;;;;7351366;32;20215;-64
2022/10/28 17:05:03;;;;;;;15.13;4.30;;;18.90;99.90;;;;;;7351343;32;20220;-64
2022/10/28 17:09:05;;;;;;;14.65;4.40;;;18.70;99.90;;;;;;7348634;32;20091;-65
2022/10/28 17:13:14;;;;;;;15.43;4.93;;;18.60;99.90;;;;;;7359380;32;20234;-64
2022/10/28 17:17:16;;;;;;;15.15;5.45;;;18.40;99.90;;;;;;7346673;32;20112;-64
2022/10/28 17:21:18;;;;;;;14.98;5.28;;;18.20;99.90;;;;;;7347932;32;20233;-64
2022/10/28 17:25:20;;;;;;;16.10;5.32;;;18.10;99.90;;;;;;7349478;32;20117;-64
2022/10/28 17:29:21;;;;;;;15.52;5.47;;;18.00;99.90;;;;;;7353016;32;20224;-65
2022/10/28 17:33:23;;;;;;;13.90;6.05;;;17.80;99.90;;;;;;7353719;32;20104;-65
2022/10/28 17:37:25;;;;;;;17.55;10.45;;;17.60;99.90;;;;;;7353132;32;20096;-64
2022/10/28 17:41:27;;;;;;;14.38;7.72;;;17.60;99.90;;;;;;7348622;32;20613;-65
2022/10/28 17:45:28;;;;;;;15.68;7.03;;;17.30;99.90;;;;;;7346267;32;20186;-64
2022/10/28 17:49:33;;;;;;;18.75;7.82;;;17.20;99.90;;;;;;7347849;32;20100;-63
2022/10/28 17:53:34;;;;;;;17.83;7.90;;;17.00;99.90;;;;;;7345350;32;20096;-62
2022/10/28 17:57:36;;;;;;;22.65;7.97;;;16.80;99.90;;;;;;7348511;32;20190;-62
2022/10/28 18:01:38;;;;;;;21.02;6.87;;;16.60;99.90;;;;;;7342546;32;20131;-61
2022/10/28 18:05:39;;;;;;;20.37;6.68;;;16.50;99.90;;;;;;7350694;32;20160;-61
2022/10/28 18:09:41;;;;;;;19.67;6.15;;;16.30;99.90;;;;;;7349835;32;20107;-61
2022/10/28 18:13:44;;;;;;;19.42;6.35;;;16.20;99.90;;;;;;7349151;32;20228;-61
2022/10/28 18:17:49;;;;;;;31.33;14.60;;;16.10;99.90;;;;;;7350496;32;20095;-61
2022/10/28 18:21:51;;;;;;;19.35;9.02;;;16.00;99.90;;;;;;7352649;32;20103;-65
2022/10/28 18:26:03;;;;;;;16.62;7.00;;;15.90;99.90;;;;;;7347723;32;20198;-63
2022/10/28 18:30:05;;;;;;;23.15;6.75;;;15.80;99.90;;;;;;7349434;32;20554;-63
2022/10/28 18:34:07;;;;;;;21.08;6.90;;;15.70;99.90;;;;;;7345961;32;20211;-62
2022/10/28 18:38:09;;;;;;;28.83;6.97;;;15.60;99.90;;;;;;7349614;32;20174;-62
2022/10/28 18:42:11;;;;;;;23.92;7.72;;;15.50;99.90;;;;;;7344380;32;20197;-63
2022/10/28 18:46:13;;;;;;;26.05;6.60;;;15.40;99.90;;;;;;7344364;32;20236;-62
2022/10/28 18:50:15;;;;;;;20.37;6.28;;;15.40;99.90;;;;;;7343445;32;20214;-63
2022/10/28 18:54:17;;;;;;;19.10;8.13;;;15.20;99.90;;;;;;7349011;32;20555;-62
2022/10/28 18:58:19;;;;;;;22.42;6.22;;;15.20;99.90;;;;;;7347002;32;20213;-63
2022/10/28 19:02:20;;;;;;;21.30;5.15;;;15.20;99.90;;;;;;7349483;32;20114;-60
2022/10/28 19:06:23;;;;;;;22.73;6.10;;;15.10;99.90;;;;;;7349663;32;20115;-64
2022/10/28 19:10:25;;;;;;;22.83;6.00;;;15.00;99.90;;;;;;7338313;32;20358;-63
2022/10/28 19:14:27;;;;;;;24.52;6.28;;;14.90;99.90;;;;;;7352206;32;20190;-62
2022/10/28 19:18:29;;;;;;;20.73;6.85;;;14.80;99.90;;;;;;7346419;32;20204;-61
2022/10/28 19:22:30;;;;;;;20.92;6.20;;;14.80;99.90;;;;;;7350402;32;20095;-63
2022/10/28 19:26:33;;;;;;;22.48;6.72;;;14.70;99.90;;;;;;7344772;32;20187;-63
2022/10/28 19:30:36;;;;;;;25.77;7.40;;;14.60;99.90;;;;;;7347846;32;20524;-63
2022/10/28 19:34:38;;;;;;;29.77;7.72;;;14.60;99.90;;;;;;7342570;32;20198;-61
2022/10/28 19:38:39;;;;;;;19.12;7.22;;;14.60;99.90;;;;;;7347145;32;20113;-60
2022/10/28 19:42:41;;;;;;;18.70;7.05;;;14.70;99.90;;;;;;7351977;32;20229;-64
2022/10/28 19:46:43;;;;;;;16.55;6.60;;;14.70;99.90;;;;;;7345906;32;20484;-62
2022/10/28 19:50:48;;;;;;;47.33;24.42;;;14.70;99.90;;;;;;7345948;32;20107;-62
2022/10/28 19:54:50;;;;;;;22.83;7.47;;;14.80;99.90;;;;;;7346754;32;20122;-63
2022/10/28 19:58:54;;;;;;;22.77;7.62;;;14.80;99.90;;;;;;7350448;32;20112;-64
2022/10/28 20:02:56;;;;;;;24.30;7.78;;;14.80;99.90;;;;;;7352486;32;20103;-63
2022/10/28 20:07:00;;;;;;;14.48;6.90;;;14.90;99.90;;;;;;7345745;32;20212;-63
2022/10/28 20:11:05;;;;;;;31.87;7.57;;;14.80;99.90;;;;;;7350106;32;20321;-60
2022/10/28 20:15:07;;;;;;;21.45;7.15;;;14.90;99.90;;;;;;7349415;32;20182;-62
2022/10/28 20:19:10;;;;;;;21.40;7.93;;;14.90;99.90;;;;;;7352852;32;20130;-64
2022/10/28 20:23:11;;;;;;;18.67;7.18;;;14.80;99.90;;;;;;7352272;32;20127;-63
2022/10/28 20:27:13;;;;;;;18.85;7.12;;;14.90;99.90;;;;;;7353437;32;20126;-61
2022/10/28 20:31:17;;;;;;;21.40;7.43;;;14.80;99.90;;;;;;7347219;32;20103;-63
2022/10/28 20:35:22;;;;;;;24.40;7.40;;;14.90;99.90;;;;;;7355534;32;20122;-62
2022/10/28 20:39:24;;;;;;;21.87;7.35;;;14.80;99.90;;;;;;7353308;32;20724;-61
2022/10/28 20:43:28;;;;;;;14.82;6.57;;;14.90;99.90;;;;;;7344610;32;20186;-58
2022/10/28 20:47:29;;;;;;;19.67;6.72;;;14.90;99.90;;;;;;7351162;32;20132;-58
2022/10/28 20:51:32;;;;;;;18.87;6.47;;;14.90;99.90;;;;;;7352950;32;20141;-59
2022/10/28 20:55:33;;;;;;;20.83;6.97;;;14.80;99.90;;;;;;7356720;32;20634;-58
2022/10/28 20:59:36;;;;;;;22.95;7.50;;;14.90;99.90;;;;;;7349942;32;20179;-60
2022/10/28 21:03:39;;;;;;;24.83;7.20;;;14.90;99.90;;;;;;7346138;32;20280;-59
2022/10/28 21:07:41;;;;;;;14.70;6.62;;;15.10;99.90;;;;;;7345830;32;20129;-59
2022/10/28 21:11:44;;;;;;;18.58;7.12;;;15.20;99.90;;;;;;7355962;32;20508;-58
2022/10/28 21:15:45;;;;;;;19.48;7.62;;;15.30;99.90;;;;;;7354281;32;20099;-59